sensor_id;sensor_type;location;lat;lon;timestamp;P1;durP1;ratioP1;P2;durP2;ratioP2
70150;SDS011;57517;43.562;19.540;2023-02-01T00:01:59;43.33;;;28.70;;
70150;SDS011;57517;43.562;19.540;2023-02-01T00:04:25;52.40;;;36.20;;
70150;SDS011;57517;43.562;19.540;2023-02-01T00:06:51;46.83;;;31.95;;
70150;SDS011;57517;43.562;19.540;2023-02-01T00:09:17;41.38;;;30.80;;
70150;SDS011;57517;43.562;19.540;2023-02-01T00:11:42;39.00;;;29.95;;
70150;SDS011;57517;43.562;19.540;2023-02-01T00:14:08;50.35;;;32.65;;
70150;SDS011;57517;43.562;19.540;2023-02-01T00:16:34;49.13;;;32.30;;
70150;SDS011;57517;43.562;19.540;2023-02-01T00:19:04;43.30;;;30.70;;
70150;SDS011;57517;43.562;19.540;2023-02-01T00:21:40;41.92;;;28.88;;
70150;SDS011;57517;43.562;19.540;2023-02-01T00:24:06;38.53;;;26.70;;
70150;SDS011;57517;43.562;19.540;2023-02-01T00:26:35;32.30;;;22.45;;
70150;SDS011;57517;43.562;19.540;2023-02-01T00:29:04;31.30;;;20.35;;
70150;SDS011;57517;43.562;19.540;2023-02-01T00:31:32;31.77;;;19.30;;
70150;SDS011;57517;43.562;19.540;2023-02-01T00:33:58;35.33;;;24.30;;
70150;SDS011;57517;43.562;19.540;2023-02-01T00:36:23;39.60;;;27.48;;
70150;SDS011;57517;43.562;19.540;2023-02-01T00:38:49;36.08;;;24.38;;
70150;SDS011;57517;43.562;19.540;2023-02-01T00:41:16;35.75;;;26.23;;
70150;SDS011;57517;43.562;19.540;2023-02-01T00:43:44;42.42;;;27.67;;
70150;SDS011;57517;43.562;19.540;2023-02-01T00:46:11;46.25;;;31.88;;
70150;SDS011;57517;43.562;19.540;2023-02-01T00:48:38;45.15;;;29.35;;
70150;SDS011;57517;43.562;19.540;2023-02-01T00:51:07;52.08;;;33.53;;
70150;SDS011;57517;43.562;19.540;2023-02-01T00:53:34;48.90;;;33.30;;
70150;SDS011;57517;43.562;19.540;2023-02-01T00:56:00;48.13;;;34.10;;
70150;SDS011;57517;43.562;19.540;2023-02-01T00:58:26;54.33;;;36.67;;
70150;SDS011;57517;43.562;19.540;2023-02-01T01:01:05;56.78;;;35.72;;
70150;SDS011;57517;43.562;19.540;2023-02-01T01:03:34;51.53;;;33.13;;
70150;SDS011;57517;43.562;19.540;2023-02-01T01:06:03;50.83;;;34.60;;
70150;SDS011;57517;43.562;19.540;2023-02-01T01:08:34;54.97;;;37.63;;
70150;SDS011;57517;43.562;19.540;2023-02-01T01:11:04;57.25;;;34.90;;
70150;SDS011;57517;43.562;19.540;2023-02-01T01:13:37;56.15;;;33.85;;
70150;SDS011;57517;43.562;19.540;2023-02-01T01:16:04;51.65;;;34.45;;
70150;SDS011;57517;43.562;19.540;2023-02-01T01:18:30;50.50;;;33.83;;
70150;SDS011;57517;43.562;19.540;2023-02-01T01:20:57;54.78;;;33.72;;
70150;SDS011;57517;43.562;19.540;2023-02-01T01:23:23;49.53;;;33.05;;
70150;SDS011;57517;43.562;19.540;2023-02-01T01:25:49;50.80;;;33.35;;
70150;SDS011;57517;43.562;19.540;2023-02-01T01:28:15;47.10;;;31.02;;
70150;SDS011;57517;43.562;19.540;2023-02-01T01:30:40;45.45;;;30.63;;
70150;SDS011;57517;43.562;19.540;2023-02-01T01:33:06;44.58;;;30.67;;
70150;SDS011;57517;43.562;19.540;2023-02-01T01:35:32;47.85;;;29.95;;
70150;SDS011;57517;43.562;19.540;2023-02-01T01:37:59;44.60;;;31.33;;
70150;SDS011;57517;43.562;19.540;2023-02-01T01:40:25;38.47;;;28.23;;
70150;SDS011;57517;43.562;19.540;2023-02-01T01:42:52;42.67;;;28.83;;
70150;SDS011;57517;43.562;19.540;2023-02-01T01:47:58;40.60;;;28.27;;
70150;SDS011;57517;43.562;19.540;2023-02-01T01:50:38;37.10;;;27.42;;
70150;SDS011;57517;43.562;19.540;2023-02-01T01:53:08;43.97;;;27.55;;
70150;SDS011;57517;43.562;19.540;2023-02-01T01:55:39;46.63;;;28.33;;
70150;SDS011;57517;43.562;19.540;2023-02-01T01:58:09;37.92;;;25.75;;
70150;SDS011;57517;43.562;19.540;2023-02-01T02:00:39;41.00;;;26.05;;
70150;SDS011;57517;43.562;19.540;2023-02-01T02:03:11;39.85;;;25.63;;
70150;SDS011;57517;43.562;19.540;2023-02-01T02:05:44;36.60;;;24.88;;
70150;SDS011;57517;43.562;19.540;2023-02-01T02:08:11;37.08;;;22.83;;
70150;SDS011;57517;43.562;19.540;2023-02-01T02:10:37;33.45;;;21.73;;
70150;SDS011;57517;43.562;19.540;2023-02-01T02:13:21;29.95;;;20.40;;
70150;SDS011;57517;43.562;19.540;2023-02-01T02:21:14;28.73;;;18.92;;
70150;SDS011;57517;43.562;19.540;2023-02-01T02:34:32;29.48;;;16.27;;
70150;SDS011;57517;43.562;19.540;2023-02-01T02:39:51;29.90;;;17.08;;
70150;SDS011;57517;43.562;19.540;2023-02-01T02:42:29;29.20;;;19.00;;
70150;SDS011;57517;43.562;19.540;2023-02-01T02:45:29;28.90;;;20.02;;
70150;SDS011;57517;43.562;19.540;2023-02-01T02:56:41;21.77;;;13.30;;
70150;SDS011;57517;43.562;19.540;2023-02-01T02:59:26;19.50;;;13.60;;
70150;SDS011;57517;43.562;19.540;2023-02-01T03:02:13;20.55;;;14.38;;
70150;SDS011;57517;43.562;19.540;2023-02-01T03:04:58;24.83;;;15.32;;
70150;SDS011;57517;43.562;19.540;2023-02-01T03:10:10;24.35;;;16.50;;
70150;SDS011;57517;43.562;19.540;2023-02-01T03:12:42;24.92;;;15.52;;
70150;SDS011;57517;43.562;19.540;2023-02-01T03:15:21;17.67;;;12.68;;
70150;SDS011;57517;43.562;19.540;2023-02-01T03:18:01;20.30;;;12.38;;
70150;SDS011;57517;43.562;19.540;2023-02-01T03:20:32;22.70;;;14.07;;
70150;SDS011;57517;43.562;19.540;2023-02-01T03:22:58;22.38;;;13.90;;
70150;SDS011;57517;43.562;19.540;2023-02-01T03:25:29;18.63;;;12.32;;
70150;SDS011;57517;43.562;19.540;2023-02-01T03:27:59;18.20;;;12.18;;
70150;SDS011;57517;43.562;19.540;2023-02-01T03:30:29;17.88;;;11.77;;
70150;SDS011;57517;43.562;19.540;2023-02-01T03:33:08;17.25;;;10.93;;
70150;SDS011;57517;43.562;19.540;2023-02-01T03:36:05;19.67;;;12.38;;
70150;SDS011;57517;43.562;19.540;2023-02-01T03:38:55;17.77;;;11.40;;
70150;SDS011;57517;43.562;19.540;2023-02-01T03:41:33;21.60;;;12.48;;
70150;SDS011;57517;43.562;19.540;2023-02-01T03:44:13;15.60;;;10.27;;
70150;SDS011;57517;43.562;19.540;2023-02-01T03:46:59;18.85;;;11.75;;
70150;SDS011;57517;43.562;19.540;2023-02-01T03:52:10;15.75;;;10.10;;
70150;SDS011;57517;43.562;19.540;2023-02-01T03:57:09;15.68;;;9.35;;
70150;SDS011;57517;43.562;19.540;2023-02-01T03:59:41;15.02;;;10.10;;
70150;SDS011;57517;43.562;19.540;2023-02-01T04:02:09;18.30;;;10.95;;
70150;SDS011;57517;43.562;19.540;2023-02-01T04:04:35;15.52;;;10.00;;
70150;SDS011;57517;43.562;19.540;2023-02-01T04:07:02;18.10;;;11.45;;
70150;SDS011;57517;43.562;19.540;2023-02-01T04:09:28;15.07;;;10.43;;
70150;SDS011;57517;43.562;19.540;2023-02-01T04:11:54;14.48;;;10.07;;
70150;SDS011;57517;43.562;19.540;2023-02-01T04:14:20;16.23;;;9.30;;
70150;SDS011;57517;43.562;19.540;2023-02-01T04:16:45;20.83;;;11.93;;
70150;SDS011;57517;43.562;19.540;2023-02-01T04:19:11;12.98;;;9.98;;
70150;SDS011;57517;43.562;19.540;2023-02-01T04:21:37;15.38;;;9.40;;
70150;SDS011;57517;43.562;19.540;2023-02-01T04:24:02;14.80;;;9.40;;
70150;SDS011;57517;43.562;19.540;2023-02-01T04:26:28;16.88;;;10.45;;
70150;SDS011;57517;43.562;19.540;2023-02-01T04:28:54;15.82;;;9.98;;
70150;SDS011;57517;43.562;19.540;2023-02-01T04:31:20;12.63;;;8.80;;
70150;SDS011;57517;43.562;19.540;2023-02-01T04:33:52;10.13;;;7.55;;
70150;SDS011;57517;43.562;19.540;2023-02-01T04:36:20;14.23;;;8.63;;
70150;SDS011;57517;43.562;19.540;2023-02-01T04:38:47;13.13;;;8.18;;
70150;SDS011;57517;43.562;19.540;2023-02-01T04:41:14;12.75;;;7.60;;
70150;SDS011;57517;43.562;19.540;2023-02-01T04:43:40;11.38;;;8.10;;
70150;SDS011;57517;43.562;19.540;2023-02-01T04:46:06;11.18;;;7.90;;
70150;SDS011;57517;43.562;19.540;2023-02-01T04:48:32;12.85;;;8.68;;
70150;SDS011;57517;43.562;19.540;2023-02-01T04:50:57;8.77;;;7.15;;
70150;SDS011;57517;43.562;19.540;2023-02-01T04:53:23;12.23;;;7.40;;
70150;SDS011;57517;43.562;19.540;2023-02-01T04:55:49;10.57;;;6.93;;
70150;SDS011;57517;43.562;19.540;2023-02-01T04:58:15;9.68;;;7.57;;
70150;SDS011;57517;43.562;19.540;2023-02-01T05:00:40;11.52;;;7.47;;
70150;SDS011;57517;43.562;19.540;2023-02-01T05:03:06;12.57;;;8.13;;
70150;SDS011;57517;43.562;19.540;2023-02-01T05:05:32;13.55;;;8.23;;
70150;SDS011;57517;43.562;19.540;2023-02-01T05:07:58;12.15;;;7.72;;
70150;SDS011;57517;43.562;19.540;2023-02-01T05:10:23;12.23;;;8.50;;
70150;SDS011;57517;43.562;19.540;2023-02-01T05:12:49;11.48;;;8.00;;
70150;SDS011;57517;43.562;19.540;2023-02-01T05:15:33;10.73;;;8.57;;
70150;SDS011;57517;43.562;19.540;2023-02-01T05:17:59;12.27;;;8.85;;
70150;SDS011;57517;43.562;19.540;2023-02-01T05:20:25;14.63;;;8.63;;
70150;SDS011;57517;43.562;19.540;2023-02-01T05:22:51;14.10;;;9.25;;
70150;SDS011;57517;43.562;19.540;2023-02-01T05:25:17;13.85;;;10.60;;
70150;SDS011;57517;43.562;19.540;2023-02-01T05:27:42;14.02;;;10.00;;
70150;SDS011;57517;43.562;19.540;2023-02-01T05:30:08;14.48;;;9.57;;
70150;SDS011;57517;43.562;19.540;2023-02-01T05:32:34;15.88;;;11.63;;
70150;SDS011;57517;43.562;19.540;2023-02-01T05:35:00;17.95;;;11.52;;
70150;SDS011;57517;43.562;19.540;2023-02-01T05:37:26;16.77;;;11.02;;
70150;SDS011;57517;43.562;19.540;2023-02-01T05:39:52;17.48;;;10.77;;
70150;SDS011;57517;43.562;19.540;2023-02-01T05:42:17;16.80;;;10.25;;
70150;SDS011;57517;43.562;19.540;2023-02-01T05:44:43;18.23;;;12.05;;
70150;SDS011;57517;43.562;19.540;2023-02-01T05:47:09;17.90;;;11.02;;
70150;SDS011;57517;43.562;19.540;2023-02-01T05:49:35;17.05;;;9.95;;
70150;SDS011;57517;43.562;19.540;2023-02-01T05:52:01;15.10;;;10.32;;
70150;SDS011;57517;43.562;19.540;2023-02-01T05:54:27;14.85;;;10.55;;
70150;SDS011;57517;43.562;19.540;2023-02-01T05:56:53;18.13;;;11.73;;
70150;SDS011;57517;43.562;19.540;2023-02-01T05:59:18;16.25;;;10.10;;
70150;SDS011;57517;43.562;19.540;2023-02-01T06:01:44;17.83;;;10.73;;
70150;SDS011;57517;43.562;19.540;2023-02-01T06:04:10;14.63;;;10.43;;
70150;SDS011;57517;43.562;19.540;2023-02-01T06:06:36;16.77;;;11.07;;
70150;SDS011;57517;43.562;19.540;2023-02-01T06:09:02;16.35;;;10.50;;
70150;SDS011;57517;43.562;19.540;2023-02-01T06:11:28;17.23;;;11.30;;
70150;SDS011;57517;43.562;19.540;2023-02-01T06:13:54;17.98;;;11.63;;
70150;SDS011;57517;43.562;19.540;2023-02-01T06:16:20;19.20;;;12.85;;
70150;SDS011;57517;43.562;19.540;2023-02-01T06:18:47;22.00;;;17.38;;
70150;SDS011;57517;43.562;19.540;2023-02-01T06:21:13;21.38;;;12.65;;
70150;SDS011;57517;43.562;19.540;2023-02-01T06:23:48;16.95;;;9.55;;
70150;SDS011;57517;43.562;19.540;2023-02-01T06:26:17;20.85;;;13.82;;
70150;SDS011;57517;43.562;19.540;2023-02-01T06:28:43;19.17;;;14.55;;
70150;SDS011;57517;43.562;19.540;2023-02-01T06:31:09;28.25;;;15.90;;
70150;SDS011;57517;43.562;19.540;2023-02-01T06:33:35;24.55;;;15.60;;
70150;SDS011;57517;43.562;19.540;2023-02-01T06:36:02;23.60;;;16.23;;
70150;SDS011;57517;43.562;19.540;2023-02-01T06:38:29;22.80;;;13.65;;
70150;SDS011;57517;43.562;19.540;2023-02-01T06:40:56;24.73;;;13.32;;
70150;SDS011;57517;43.562;19.540;2023-02-01T06:43:23;16.83;;;11.88;;
70150;SDS011;57517;43.562;19.540;2023-02-01T06:45:50;16.05;;;11.32;;
70150;SDS011;57517;43.562;19.540;2023-02-01T06:48:16;16.88;;;11.10;;
70150;SDS011;57517;43.562;19.540;2023-02-01T06:50:43;14.75;;;10.77;;
70150;SDS011;57517;43.562;19.540;2023-02-01T06:53:09;18.15;;;12.73;;
70150;SDS011;57517;43.562;19.540;2023-02-01T06:55:35;18.98;;;12.38;;
70150;SDS011;57517;43.562;19.540;2023-02-01T06:58:00;19.38;;;12.25;;
70150;SDS011;57517;43.562;19.540;2023-02-01T07:00:27;16.92;;;12.50;;
70150;SDS011;57517;43.562;19.540;2023-02-01T07:02:54;19.85;;;11.27;;
70150;SDS011;57517;43.562;19.540;2023-02-01T07:05:20;20.48;;;11.70;;
70150;SDS011;57517;43.562;19.540;2023-02-01T07:07:46;15.13;;;10.38;;
70150;SDS011;57517;43.562;19.540;2023-02-01T07:10:12;20.25;;;12.35;;
70150;SDS011;57517;43.562;19.540;2023-02-01T07:12:38;17.25;;;11.85;;
70150;SDS011;57517;43.562;19.540;2023-02-01T07:15:04;21.77;;;14.15;;
70150;SDS011;57517;43.562;19.540;2023-02-01T07:17:30;57.72;;;40.47;;
70150;SDS011;57517;43.562;19.540;2023-02-01T07:19:56;29.98;;;18.92;;
70150;SDS011;57517;43.562;19.540;2023-02-01T07:22:24;22.73;;;12.80;;
70150;SDS011;57517;43.562;19.540;2023-02-01T07:24:51;16.35;;;11.60;;
70150;SDS011;57517;43.562;19.540;2023-02-01T07:27:16;20.20;;;11.93;;
70150;SDS011;57517;43.562;19.540;2023-02-01T07:29:42;17.95;;;11.93;;
70150;SDS011;57517;43.562;19.540;2023-02-01T07:32:08;36.53;;;31.25;;
70150;SDS011;57517;43.562;19.540;2023-02-01T07:34:34;24.73;;;17.00;;
70150;SDS011;57517;43.562;19.540;2023-02-01T07:36:59;23.38;;;14.38;;
70150;SDS011;57517;43.562;19.540;2023-02-01T07:39:25;19.55;;;12.25;;
70150;SDS011;57517;43.562;19.540;2023-02-01T07:41:53;18.17;;;12.90;;
70150;SDS011;57517;43.562;19.540;2023-02-01T07:44:19;21.58;;;14.07;;
70150;SDS011;57517;43.562;19.540;2023-02-01T07:46:47;20.02;;;13.23;;
70150;SDS011;57517;43.562;19.540;2023-02-01T07:49:14;19.55;;;13.20;;
70150;SDS011;57517;43.562;19.540;2023-02-01T07:51:39;21.35;;;13.50;;
70150;SDS011;57517;43.562;19.540;2023-02-01T07:54:05;19.35;;;12.63;;
70150;SDS011;57517;43.562;19.540;2023-02-01T07:56:31;20.60;;;14.40;;
70150;SDS011;57517;43.562;19.540;2023-02-01T07:58:57;21.45;;;12.13;;
70150;SDS011;57517;43.562;19.540;2023-02-01T08:01:25;17.45;;;11.80;;
70150;SDS011;57517;43.562;19.540;2023-02-01T08:03:59;19.52;;;12.38;;
70150;SDS011;57517;43.562;19.540;2023-02-01T08:06:30;15.88;;;11.15;;
70150;SDS011;57517;43.562;19.540;2023-02-01T08:08:58;15.98;;;11.88;;
70150;SDS011;57517;43.562;19.540;2023-02-01T08:11:24;14.77;;;10.98;;
70150;SDS011;57517;43.562;19.540;2023-02-01T08:13:50;15.27;;;10.07;;
70150;SDS011;57517;43.562;19.540;2023-02-01T08:16:18;17.25;;;10.73;;
70150;SDS011;57517;43.562;19.540;2023-02-01T08:18:44;15.52;;;10.80;;
70150;SDS011;57517;43.562;19.540;2023-02-01T08:21:14;17.23;;;11.57;;
70150;SDS011;57517;43.562;19.540;2023-02-01T08:23:45;18.98;;;11.27;;
70150;SDS011;57517;43.562;19.540;2023-02-01T08:26:18;16.60;;;11.18;;
70150;SDS011;57517;43.562;19.540;2023-02-01T08:28:52;17.73;;;11.60;;
70150;SDS011;57517;43.562;19.540;2023-02-01T08:31:23;19.45;;;13.50;;
70150;SDS011;57517;43.562;19.540;2023-02-01T08:33:51;20.17;;;13.07;;
70150;SDS011;57517;43.562;19.540;2023-02-01T08:36:19;18.42;;;12.77;;
70150;SDS011;57517;43.562;19.540;2023-02-01T08:38:45;20.45;;;14.85;;
70150;SDS011;57517;43.562;19.540;2023-02-01T08:41:15;20.20;;;13.85;;
70150;SDS011;57517;43.562;19.540;2023-02-01T08:43:42;18.95;;;12.60;;
70150;SDS011;57517;43.562;19.540;2023-02-01T08:46:09;18.38;;;12.95;;
70150;SDS011;57517;43.562;19.540;2023-02-01T08:48:35;18.65;;;13.25;;
70150;SDS011;57517;43.562;19.540;2023-02-01T08:51:07;18.65;;;15.60;;
70150;SDS011;57517;43.562;19.540;2023-02-01T08:53:34;25.67;;;22.38;;
70150;SDS011;57517;43.562;19.540;2023-02-01T08:56:01;27.50;;;15.98;;
70150;SDS011;57517;43.562;19.540;2023-02-01T08:58:27;29.25;;;21.52;;
70150;SDS011;57517;43.562;19.540;2023-02-01T09:00:53;25.83;;;21.63;;
70150;SDS011;57517;43.562;19.540;2023-02-01T09:03:19;34.20;;;27.23;;
70150;SDS011;57517;43.562;19.540;2023-02-01T09:05:44;24.45;;;20.90;;
70150;SDS011;57517;43.562;19.540;2023-02-01T09:08:10;25.77;;;21.30;;
70150;SDS011;57517;43.562;19.540;2023-02-01T09:10:39;24.75;;;20.92;;
70150;SDS011;57517;43.562;19.540;2023-02-01T09:13:06;21.80;;;17.98;;
70150;SDS011;57517;43.562;19.540;2023-02-01T09:15:33;19.85;;;16.85;;
70150;SDS011;57517;43.562;19.540;2023-02-01T09:17:58;17.88;;;16.00;;
70150;SDS011;57517;43.562;19.540;2023-02-01T09:20:24;21.90;;;18.90;;
70150;SDS011;57517;43.562;19.540;2023-02-01T09:22:51;28.95;;;25.85;;
70150;SDS011;57517;43.562;19.540;2023-02-01T09:25:17;26.30;;;23.33;;
70150;SDS011;57517;43.562;19.540;2023-02-01T09:27:43;68.05;;;50.70;;
70150;SDS011;57517;43.562;19.540;2023-02-01T09:30:09;26.83;;;21.95;;
70150;SDS011;57517;43.562;19.540;2023-02-01T09:32:35;28.02;;;22.42;;
70150;SDS011;57517;43.562;19.540;2023-02-01T09:35:01;25.98;;;21.60;;
70150;SDS011;57517;43.562;19.540;2023-02-01T09:37:27;25.80;;;21.55;;
70150;SDS011;57517;43.562;19.540;2023-02-01T09:39:53;24.35;;;21.08;;
70150;SDS011;57517;43.562;19.540;2023-02-01T09:45:10;27.98;;;24.73;;
70150;SDS011;57517;43.562;19.540;2023-02-01T09:47:59;35.95;;;32.15;;
70150;SDS011;57517;43.562;19.540;2023-02-01T09:50:37;21.35;;;19.10;;
70150;SDS011;57517;43.562;19.540;2023-02-01T09:53:05;20.10;;;16.65;;
70150;SDS011;57517;43.562;19.540;2023-02-01T09:58:22;20.42;;;17.67;;
70150;SDS011;57517;43.562;19.540;2023-02-01T10:01:02;19.58;;;16.73;;
70150;SDS011;57517;43.562;19.540;2023-02-01T10:03:30;20.58;;;18.52;;
70150;SDS011;57517;43.562;19.540;2023-02-01T10:10:57;20.83;;;18.52;;
70150;SDS011;57517;43.562;19.540;2023-02-01T10:13:31;25.65;;;22.55;;
70150;SDS011;57517;43.562;19.540;2023-02-01T10:23:58;33.58;;;30.27;;
70150;SDS011;57517;43.562;19.540;2023-02-01T10:26:31;24.42;;;21.80;;
70150;SDS011;57517;43.562;19.540;2023-02-01T10:28:59;18.98;;;17.00;;
70150;SDS011;57517;43.562;19.540;2023-02-01T10:31:28;20.55;;;18.30;;
70150;SDS011;57517;43.562;19.540;2023-02-01T10:33:59;20.95;;;18.92;;
70150;SDS011;57517;43.562;19.540;2023-02-01T10:36:32;24.55;;;22.05;;
70150;SDS011;57517;43.562;19.540;2023-02-01T10:39:00;22.67;;;20.20;;
70150;SDS011;57517;43.562;19.540;2023-02-01T10:41:35;25.25;;;21.25;;
70150;SDS011;57517;43.562;19.540;2023-02-01T10:44:12;20.55;;;18.38;;
70150;SDS011;57517;43.562;19.540;2023-02-01T10:46:40;18.73;;;16.60;;
70150;SDS011;57517;43.562;19.540;2023-02-01T10:49:13;18.92;;;17.13;;
70150;SDS011;57517;43.562;19.540;2023-02-01T10:54:32;22.85;;;20.40;;
70150;SDS011;57517;43.562;19.540;2023-02-01T10:56:59;27.42;;;24.60;;
70150;SDS011;57517;43.562;19.540;2023-02-01T10:59:25;28.38;;;25.27;;
70150;SDS011;57517;43.562;19.540;2023-02-01T11:02:00;24.77;;;22.17;;
70150;SDS011;57517;43.562;19.540;2023-02-01T11:04:27;24.63;;;22.10;;
70150;SDS011;57517;43.562;19.540;2023-02-01T11:09:34;21.38;;;17.60;;
70150;SDS011;57517;43.562;19.540;2023-02-01T11:12:00;22.40;;;20.00;;
70150;SDS011;57517;43.562;19.540;2023-02-01T11:16:54;24.00;;;21.67;;
70150;SDS011;57517;43.562;19.540;2023-02-01T11:19:20;21.52;;;19.23;;
70150;SDS011;57517;43.562;19.540;2023-02-01T11:21:53;24.42;;;22.00;;
70150;SDS011;57517;43.562;19.540;2023-02-01T11:24:22;25.60;;;22.90;;
70150;SDS011;57517;43.562;19.540;2023-02-01T11:26:49;21.52;;;19.23;;
70150;SDS011;57517;43.562;19.540;2023-02-01T11:29:17;24.42;;;21.08;;
70150;SDS011;57517;43.562;19.540;2023-02-01T11:31:47;23.05;;;20.63;;
70150;SDS011;57517;43.562;19.540;2023-02-01T11:34:15;23.27;;;19.13;;
70150;SDS011;57517;43.562;19.540;2023-02-01T11:36:41;21.20;;;17.95;;
70150;SDS011;57517;43.562;19.540;2023-02-01T11:39:10;20.10;;;16.88;;
70150;SDS011;57517;43.562;19.540;2023-02-01T11:44:39;20.83;;;17.75;;
70150;SDS011;57517;43.562;19.540;2023-02-01T11:49:44;25.30;;;20.95;;
70150;SDS011;57517;43.562;19.540;2023-02-01T11:57:42;25.15;;;19.52;;
70150;SDS011;57517;43.562;19.540;2023-02-01T12:11:43;22.77;;;17.67;;
70150;SDS011;57517;43.562;19.540;2023-02-01T12:14:28;21.33;;;18.45;;
70150;SDS011;57517;43.562;19.540;2023-02-01T12:18:11;28.42;;;21.40;;
70150;SDS011;57517;43.562;19.540;2023-02-01T12:36:18;21.38;;;15.48;;
70150;SDS011;57517;43.562;19.540;2023-02-01T12:41:35;23.80;;;16.95;;
70150;SDS011;57517;43.562;19.540;2023-02-01T12:44:20;22.38;;;17.30;;
70150;SDS011;57517;43.562;19.540;2023-02-01T12:48:00;19.85;;;15.52;;
70150;SDS011;57517;43.562;19.540;2023-02-01T12:52:53;23.42;;;17.90;;
70150;SDS011;57517;43.562;19.540;2023-02-01T12:58:12;25.73;;;18.45;;
70150;SDS011;57517;43.562;19.540;2023-02-01T13:06:05;24.90;;;16.98;;
70150;SDS011;57517;43.562;19.540;2023-02-01T13:08:48;19.55;;;16.08;;
70150;SDS011;57517;43.562;19.540;2023-02-01T13:21:43;28.93;;;21.87;;
70150;SDS011;57517;43.562;19.540;2023-02-01T13:24:26;28.73;;;21.45;;
70150;SDS011;57517;43.562;19.540;2023-02-01T13:27:02;26.05;;;19.92;;
70150;SDS011;57517;43.562;19.540;2023-02-01T13:29:29;28.73;;;21.48;;
70150;SDS011;57517;43.562;19.540;2023-02-01T13:32:09;31.35;;;23.98;;
70150;SDS011;57517;43.562;19.540;2023-02-01T13:34:55;35.00;;;26.63;;
70150;SDS011;57517;43.562;19.540;2023-02-01T13:43:05;37.47;;;26.98;;
70150;SDS011;57517;43.562;19.540;2023-02-01T13:48:18;24.25;;;16.70;;
70150;SDS011;57517;43.562;19.540;2023-02-01T13:50:58;31.77;;;21.33;;
70150;SDS011;57517;43.562;19.540;2023-02-01T13:53:29;35.17;;;27.30;;
70150;SDS011;57517;43.562;19.540;2023-02-01T13:58:37;46.67;;;36.83;;
70150;SDS011;57517;43.562;19.540;2023-02-01T14:03:52;44.15;;;36.33;;
70150;SDS011;57517;43.562;19.540;2023-02-01T14:16:44;44.78;;;33.70;;
70150;SDS011;57517;43.562;19.540;2023-02-01T14:21:54;46.67;;;36.50;;
70150;SDS011;57517;43.562;19.540;2023-02-01T14:24:35;49.22;;;38.78;;
70150;SDS011;57517;43.562;19.540;2023-02-01T14:27:06;47.22;;;37.72;;
70150;SDS011;57517;43.562;19.540;2023-02-01T14:29:40;61.13;;;37.08;;
70150;SDS011;57517;43.562;19.540;2023-02-01T14:32:17;43.53;;;32.05;;
70150;SDS011;57517;43.562;19.540;2023-02-01T14:44:50;41.40;;;31.17;;
70150;SDS011;57517;43.562;19.540;2023-02-01T14:55:28;47.80;;;37.70;;
70150;SDS011;57517;43.562;19.540;2023-02-01T14:58:19;59.95;;;43.70;;
70150;SDS011;57517;43.562;19.540;2023-02-01T15:00:53;55.25;;;43.15;;
70150;SDS011;57517;43.562;19.540;2023-02-01T15:08:59;67.90;;;51.45;;
70150;SDS011;57517;43.562;19.540;2023-02-01T15:11:29;61.15;;;48.85;;
70150;SDS011;57517;43.562;19.540;2023-02-01T15:13:55;66.18;;;51.45;;
70150;SDS011;57517;43.562;19.540;2023-02-01T15:16:23;59.25;;;46.78;;
70150;SDS011;57517;43.562;19.540;2023-02-01T15:18:50;67.03;;;50.80;;
70150;SDS011;57517;43.562;19.540;2023-02-01T15:21:31;62.45;;;49.13;;
70150;SDS011;57517;43.562;19.540;2023-02-01T15:24:13;57.22;;;47.40;;
70150;SDS011;57517;43.562;19.540;2023-02-01T15:26:43;60.08;;;45.42;;
70150;SDS011;57517;43.562;19.540;2023-02-01T15:29:10;57.08;;;45.70;;
70150;SDS011;57517;43.562;19.540;2023-02-01T15:31:38;61.28;;;47.33;;
70150;SDS011;57517;43.562;19.540;2023-02-01T15:34:12;56.28;;;46.58;;
70150;SDS011;57517;43.562;19.540;2023-02-01T15:36:39;73.10;;;54.03;;
70150;SDS011;57517;43.562;19.540;2023-02-01T15:41:45;77.47;;;56.30;;
70150;SDS011;57517;43.562;19.540;2023-02-01T15:44:18;79.43;;;61.57;;
70150;SDS011;57517;43.562;19.540;2023-02-01T15:46:47;72.07;;;55.03;;
70150;SDS011;57517;43.562;19.540;2023-02-01T15:49:17;93.20;;;67.18;;
70150;SDS011;57517;43.562;19.540;2023-02-01T15:51:48;84.25;;;58.80;;
70150;SDS011;57517;43.562;19.540;2023-02-01T15:54:19;84.22;;;62.58;;
70150;SDS011;57517;43.562;19.540;2023-02-01T15:56:56;81.18;;;62.38;;
70150;SDS011;57517;43.562;19.540;2023-02-01T15:59:28;114.30;;;82.80;;
70150;SDS011;57517;43.562;19.540;2023-02-01T16:01:58;87.78;;;63.30;;
70150;SDS011;57517;43.562;19.540;2023-02-01T16:04:25;105.50;;;85.70;;
70150;SDS011;57517;43.562;19.540;2023-02-01T16:06:58;120.65;;;92.53;;
70150;SDS011;57517;43.562;19.540;2023-02-01T16:09:36;85.45;;;65.13;;
70150;SDS011;57517;43.562;19.540;2023-02-01T16:14:56;44.72;;;37.50;;
70150;SDS011;57517;43.562;19.540;2023-02-01T16:17:21;49.67;;;39.80;;
70150;SDS011;57517;43.562;19.540;2023-02-01T16:19:47;40.13;;;31.45;;
70150;SDS011;57517;43.562;19.540;2023-02-01T16:22:13;40.40;;;32.00;;
70150;SDS011;57517;43.562;19.540;2023-02-01T16:24:38;58.90;;;41.33;;
70150;SDS011;57517;43.562;19.540;2023-02-01T16:27:04;172.63;;;127.10;;
70150;SDS011;57517;43.562;19.540;2023-02-01T16:29:32;102.10;;;76.45;;
70150;SDS011;57517;43.562;19.540;2023-02-01T16:31:58;83.07;;;62.83;;
70150;SDS011;57517;43.562;19.540;2023-02-01T16:34:24;73.88;;;57.58;;
70150;SDS011;57517;43.562;19.540;2023-02-01T16:36:51;76.03;;;55.10;;
70150;SDS011;57517;43.562;19.540;2023-02-01T16:39:20;53.15;;;39.20;;
70150;SDS011;57517;43.562;19.540;2023-02-01T16:41:46;43.30;;;32.60;;
70150;SDS011;57517;43.562;19.540;2023-02-01T16:44:12;45.55;;;37.20;;
70150;SDS011;57517;43.562;19.540;2023-02-01T16:46:42;51.10;;;38.88;;
70150;SDS011;57517;43.562;19.540;2023-02-01T16:49:20;72.45;;;53.50;;
70150;SDS011;57517;43.562;19.540;2023-02-01T16:51:50;68.95;;;52.08;;
70150;SDS011;57517;43.562;19.540;2023-02-01T16:54:20;69.72;;;50.70;;
70150;SDS011;57517;43.562;19.540;2023-02-01T16:56:46;65.28;;;47.28;;
70150;SDS011;57517;43.562;19.540;2023-02-01T16:59:11;59.33;;;45.70;;
70150;SDS011;57517;43.562;19.540;2023-02-01T17:01:38;51.83;;;39.55;;
70150;SDS011;57517;43.562;19.540;2023-02-01T17:04:06;34.17;;;27.30;;
70150;SDS011;57517;43.562;19.540;2023-02-01T17:06:33;33.85;;;27.02;;
70150;SDS011;57517;43.562;19.540;2023-02-01T17:09:02;41.88;;;31.02;;
70150;SDS011;57517;43.562;19.540;2023-02-01T17:11:29;36.47;;;30.42;;
70150;SDS011;57517;43.562;19.540;2023-02-01T17:13:56;40.40;;;32.45;;
70150;SDS011;57517;43.562;19.540;2023-02-01T17:16:27;48.90;;;37.67;;
70150;SDS011;57517;43.562;19.540;2023-02-01T17:21:22;59.88;;;48.35;;
70150;SDS011;57517;43.562;19.540;2023-02-01T17:23:50;74.47;;;57.17;;
70150;SDS011;57517;43.562;19.540;2023-02-01T17:26:17;79.57;;;60.90;;
70150;SDS011;57517;43.562;19.540;2023-02-01T17:28:43;84.22;;;65.15;;
70150;SDS011;57517;43.562;19.540;2023-02-01T17:31:11;77.40;;;59.55;;